Nearby METAR Reports

 

KDPA - Chicago/Dupage, Illinois, USA
Distance from station: ESE 9mi, 15km
Updated: Sun, 15-Sep-2019 3:52am CDT
Rain, Mostly cloudy
Rain, Mostly cloudy
 Wind from SW
Wind: SW 9 mph , 15 km/h
Temperature: 66°F , 19°C
Dew Point: 63°F , 17°C
Humidity: 88%
Barometer: 30.12 inHg , 1020 hPa
Summary: Rain
Clouds: Mostly cloudy
Visibility: 7 miles , 11 km
Cloud details: Mostly cloudy 11000 ft
2019/09/15 08:52 KDPA 150852Z 22008KT 7SM RA BKN110 19/17 A3012 RMK AO2 LTG DSNT SW AND W SLP194 P0005 60005 T01940167 53001
KARR - Chicago/Aurora, Illinois, USA
Distance from station: SSW 14mi, 22km
Updated: Sun, 15-Sep-2019 4:47am CDT
Heavy rain, Mist, Overcast
Heavy rain, Mist, Overcast
 Wind from S
Wind: S 8 mph , 13 km/h
Temperature: 63°F , 17°C
Dew Point: 63°F , 17°C
Humidity: 100%
Barometer: 30.13 inHg , 1020.3 hPa
Summary: Heavy rain, Mist
Clouds: Overcast
Visibility: 1 3/4 miles , 2.8 km
Cloud details: Mostly cloudy 4500 ft
Mostly cloudy 6000 ft
Overcast 8500 ft
2019/09/15 09:47 KARR 150947Z AUTO 17007KT 1 3/4SM +RA BR BKN045 BKN060 OVC085 17/17 A3013 RMK AO2 P0032 TSNO
 
KDKB - De Kalb, Illinois, USA
Distance from station: W 14mi, 23km
Updated: Sun, 15-Sep-2019 4:35am CDT
Nearby thunderstorm, Rain, Overcast
Nearby thunderstorm, Rain, Overcast
 Wind from SSE
Wind: SSE 9 mph , 15 km/h
Temperature: 64°F , 18°C
Dew Point: 64°F , 18°C
Humidity: 100%
Barometer: 30.12 inHg , 1020 hPa
Summary: Nearby thunderstorm, Rain
Clouds: Overcast
Visibility: 5 miles , 8 km
Cloud details: Partly cloudy 1200 ft
Mostly cloudy 4800 ft
Overcast 6500 ft
2019/09/15 09:35 KDKB 150935Z AUTO 16008KT 5SM VCTSRA SCT012 BKN048 OVC065 18/18 A3012 RMK AO2 LTG DSNT SE THRU W P0016 T01780178
KORD - Chicago O'hare, Illinois, USA
Distance from station: E 25mi, 41km
Updated: Sun, 15-Sep-2019 3:51am CDT
Light rain, Overcast
Light rain, Overcast
 Wind from SSW
Wind: SSW 7 mph , 11 km/h
Temperature: 66°F , 19°C
Dew Point: 61°F , 16°C
Humidity: 83%
Barometer: 30.09 inHg , 1019 hPa
Summary: Light rain
Clouds: Overcast
Visibility: 10 miles , 16 km
Cloud details: Few Clouds 5500 ft
Partly cloudy 9500 ft
Mostly cloudy 12000 ft
Overcast 25000 ft
2019/09/15 08:51 KORD 150851Z 20006KT 10SM -RA FEW055 SCT095 BKN120 OVC250 19/16 A3009 RMK AO2 LTG DSNT E AND SE RAB20 SLP184 P0001 60001 T01890156 56007
 
KPWK - Palwaukee, Illinois, USA
Distance from station: ENE 29mi, 47km
Updated: Sun, 15-Sep-2019 3:52am CDT
Light rain, Mostly cloudy
Light rain, Mostly cloudy
 Wind from S
Wind: S 8 mph , 13 km/h
Temperature: 70°F , 21°C
Dew Point: 61°F , 16°C
Humidity: 73%
Barometer: 30.08 inHg , 1018.6 hPa
Summary: Light rain
Clouds: Mostly cloudy
Visibility: 10 miles , 16 km
Cloud details: Mostly cloudy 11000 ft
2019/09/15 08:52 KPWK 150852Z AUTO 19007KT 10SM -RA BKN110 21/16 A3008 RMK AO2 RAB19 SLP183 P0002 60002 T02060161 58008
KLOT - Romeoville/Chi, Illinois, USA
Distance from station: SE 30mi, 48km
Updated: Sun, 15-Sep-2019 4:35am CDT
Thunderstorm rain, Overcast
Thunderstorm rain, Overcast
 Wind from calm
Wind: Calm
Temperature: 64°F , 18°C
Dew Point: 63°F , 17°C
Humidity: 94%
Barometer: 30.15 inHg , 1021 hPa
Summary: Thunderstorm Rain
Clouds: Overcast
Visibility: 5 miles , 8 km
Cloud details: Partly cloudy 3200 ft
Overcast 5500 ft
2019/09/15 09:35 KLOT 150935Z AUTO 00000KT 5SM TSRA SCT032 OVC055 18/17 A3015 RMK AO2 LTG DSNT ALQS T01770170
 
KJOT - Joliet, Illinois, USA
Distance from station: SSE 33mi, 53km
Updated: Sun, 15-Sep-2019 4:35am CDT
Thunderstorm rain, Overcast
Thunderstorm rain, Overcast
 Wind from calm
Wind: Calm
Temperature: 66°F , 19°C
Dew Point: 66°F , 19°C
Humidity: 100%
Barometer: 30.16 inHg , 1021.3 hPa
Summary: Thunderstorm Rain
Clouds: Overcast
Visibility: 2 1/2 miles , 4 km
Cloud details: Partly cloudy 2300 ft
Mostly cloudy 6500 ft
Overcast 7000 ft
2019/09/15 09:35 KJOT 150935Z AUTO 00000KT 2 1/2SM TSRA SCT023 BKN065 OVC070 19/19 A3016 RMK AO2 VIS 3/4V5 LTG DSNT ALQS P0017 T01880188
KRPJ - Rochelle/Koritz, Illinois, USA
Distance from station: W 34mi, 55km
Updated: Sun, 15-Sep-2019 4:35am CDT
Heavy thunderstorm, Rain, Overcast
Heavy thunderstorm, Rain, Overcast
 Wind from S
Wind: S 7 mph , 11 km/h
Temperature: 64°F , 18°C
Dew Point: 64°F , 18°C
Humidity: 100%
Barometer: 30.12 inHg , 1020 hPa
Summary: Heavy thunderstorm, Rain
Clouds: Overcast
Visibility: 7 miles , 11 km
Cloud details: Overcast 3800 ft
2019/09/15 09:35 KRPJ 150935Z AUTO 18006KT 7SM +TSRA OVC038 18/18 A3012 RMK AO2 LTG DSNT ALQS P0002 T01840184
 
KC09 - Morris-Washburn, Illinois, USA
Distance from station: S 36mi, 59km
Updated: Sun, 15-Sep-2019 4:35am CDT
Heavy thunderstorm, Rain, Overcast
Heavy thunderstorm, Rain, Overcast
 Wind from calm
Wind: Calm
Temperature: 64°F , 18°C
Dew Point: 64°F , 18°C
Humidity: 100%
Barometer: 30.13 inHg , 1020.3 hPa
Summary: Heavy thunderstorm, Rain
Clouds: Overcast
Visibility: 1 3/4 miles , 2.8 km
Cloud details: Mostly cloudy 1500 ft
Mostly cloudy 2100 ft
Overcast 3400 ft
2019/09/15 09:35 KC09 150935Z AUTO 00000KT 1 3/4SM +TSRA BKN015 BKN021 OVC034 18/18 A3013 RMK AO2 LTG DSNT ALQS P0026 T01800177
KMDW - Chicago, Illinois, USA
Distance from station: ESE 37mi, 59km
Updated: Sun, 15-Sep-2019 4:22am CDT
Light thunderstorm, Rain, Overcast
Light thunderstorm, Rain, Overcast
 Wind from SW
Wind: SW 13 mph , 20 km/h
Temperature: 66°F , 19°C
Dew Point: 61°F , 16°C
Humidity: 83%
Barometer: 30.11 inHg , 1019.6 hPa
Summary: Light thunderstorm, Rain
Clouds: Overcast
Visibility: 9 miles , 14 km
Cloud details: Partly cloudy 6000 ft
Mostly cloudy 9000 ft
Overcast 12000 ft
2019/09/15 09:22 KMDW 150922Z 22011KT 9SM -TSRA SCT060CB BKN090 OVC120 19/16 A3011 RMK AO2 LTG DSNT SE-W TSB17 FRQ LTGICCCCG VC SW-W TS VC SW-W MOV E P0004 T01890161
 
KRFD - Rockford, Illinois, USA
Distance from station: WNW 38mi, 62km
Updated: Sun, 15-Sep-2019 3:54am CDT
Light thunderstorm, Rain, Overcast
Light thunderstorm, Rain, Overcast
 Wind from S
Wind: S 9 mph , 15 km/h
Temperature: 66°F , 19°C
Dew Point: 64°F , 18°C
Humidity: 94%
Barometer: 30.10 inHg , 1019.3 hPa
Summary: Light thunderstorm, Rain
Clouds: Overcast
Visibility: 10 miles , 16 km
Cloud details: Mostly cloudy 6500 ft
Overcast 11000 ft
2019/09/15 08:54 KRFD 150854Z 17008KT 10SM -TSRA BKN065CB OVC110 19/18 A3010 RMK AO2 LTG DSNT ALQDS SLP190 OCNL LTGICCC OHD TS OHD MOV SE P0007 60008 T01890183 53007
KUGN - Waukegan, Illinois, USA
Distance from station: NE 42mi, 68km
Updated: Sun, 15-Sep-2019 3:55am CDT
Light rain, Mostly cloudy
Light rain, Mostly cloudy
 Wind from varies
Wind: varies 7 mph , 11 km/h
Temperature: 68°F , 20°C
Dew Point: 61°F , 16°C
Humidity: 78%
Barometer: 30.08 inHg , 1018.6 hPa
Summary: Light rain
Clouds: Mostly cloudy
Visibility: 10 miles , 16 km
Cloud details: Few Clouds 6000 ft
Partly cloudy 7500 ft
Mostly cloudy 9500 ft
2019/09/15 08:55 KUGN 150855Z AUTO VRB06KT 10SM -RA FEW060 SCT075 BKN095 20/16 A3008 RMK AO2 RAB21 SLP175 P0000 60000 T02000161 56003
 
KBUU - Burlington, Wisconsin, USA
Distance from station: N 50mi, 81km
Updated: Thu, 12-Sep-2019 11:55pm CDT
NOT Current
Rain, Overcast
Rain, Overcast
 Wind from N
Wind: N 7 mph , 11 km/h, Gust: 18 mph , 30 km/h
Temperature: 68°F , 20°C
Dew Point: 66°F , 19°C
Humidity: 94%
Barometer: 29.99 inHg , 1015.6 hPa
Summary: Rain
Clouds: Overcast
Visibility: 7 miles , 11 km
Cloud details: Partly cloudy 1600 ft
Overcast 2100 ft
2019/09/13 04:55 KBUU 130455Z AUTO 35006G16KT 7SM RA SCT016 OVC021 20/19 A2999 RMK AO2 P0003 T01980190